TimeCST,TemperatureF,Dew PointF,Humidity,Sea Level PressureIn,VisibilityMPH,Wind Direction,Wind SpeedMPH,Gust SpeedMPH,PrecipitationIn,Events,Conditions,WindDirDegrees,DateUTC
12:15 AM,7.3,0.5,74,29.92,4.0,NW,27.6,34.5,N/A,,Haze,320,2014-02-27 06:15:00
12:35 AM,6.8,-0.9,71,29.92,3.0,NW,29.9,34.5,N/A,,Haze,310,2014-02-27 06:35:00
12:55 AM,5.2,-4.0,66,29.93,2.5,NW,29.9,38.0,N/A,,Haze,320,2014-02-27 06:55:00
1:15 AM,4.1,-5.6,64,29.94,7.0,NW,20.7,32.2,N/A,,Clear,310,2014-02-27 07:15:00
1:35 AM,2.8,-6.7,64,29.95,7.0,NW,24.2,31.1,N/A,,Clear,320,2014-02-27 07:35:00
1:55 AM,1.4,-7.6,66,29.96,7.0,NW,24.2,31.1,N/A,,Clear,320,2014-02-27 07:55:00
2:15 AM,0.5,-8.1,67,29.98,10.0,NW,24.2,-,N/A,,Clear,310,2014-02-27 08:15:00
2:35 AM,-0.4,-9.4,66,29.99,10.0,NW,20.7,-,N/A,,Clear,320,2014-02-27 08:35:00
2:55 AM,-1.3,-10.1,66,30.00,10.0,NW,17.3,-,N/A,,Clear,310,2014-02-27 08:55:00
3:15 AM,-1.8,-10.1,68,30.00,10.0,NW,21.9,-,N/A,,Clear,310,2014-02-27 09:15:00
3:35 AM,-2.4,-11.4,66,30.01,10.0,NW,17.3,27.6,N/A,,Clear,320,2014-02-27 09:35:00
3:55 AM,-3.5,-11.4,69,30.03,10.0,NW,20.7,26.5,N/A,,Clear,310,2014-02-27 09:55:00
4:15 AM,-4.2,-12.3,68,30.03,10.0,NW,21.9,27.6,N/A,,Clear,320,2014-02-27 10:15:00
4:35 AM,-4.9,-13.2,68,30.04,10.0,NW,19.6,-,N/A,,Clear,310,2014-02-27 10:35:00
4:55 AM,-5.3,-14.1,66,30.05,10.0,NW,19.6,-,N/A,,Clear,320,2014-02-27 10:55:00
5:15 AM,-5.8,-14.6,66,30.06,10.0,NW,15.0,-,N/A,,Clear,320,2014-02-27 11:15:00
5:35 AM,-6.2,-14.3,68,30.07,10.0,NNW,17.3,23.0,N/A,,Clear,330,2014-02-27 11:35:00
5:55 AM,-6.3,-15.0,66,30.08,10.0,NW,16.1,-,N/A,,Clear,320,2014-02-27 11:55:00
6:15 AM,-7.1,-15.9,66,30.09,10.0,NW,15.0,-,N/A,,Clear,320,2014-02-27 12:15:00
6:35 AM,-7.2,-16.1,65,30.10,10.0,NNW,17.3,-,N/A,,Clear,330,2014-02-27 12:35:00
6:55 AM,-7.8,-17.0,64,30.12,10.0,NNW,12.7,-,N/A,,Clear,330,2014-02-27 12:55:00
7:15 AM,-8.0,-17.7,63,30.12,10.0,NNW,15.0,-,N/A,,Clear,330,2014-02-27 13:15:00
7:35 AM,-8.1,-17.3,64,30.13,10.0,NW,11.5,-,N/A,,Clear,320,2014-02-27 13:35:00
7:55 AM,-8.0,-17.7,63,30.15,10.0,NW,15.0,-,N/A,,Clear,310,2014-02-27 13:55:00
8:15 AM,-7.6,-18.4,59,30.16,10.0,NNW,15.0,-,N/A,,Clear,330,2014-02-27 14:15:00
8:35 AM,-7.1,-18.4,58,30.16,10.0,NNW,13.8,-,N/A,,Clear,330,2014-02-27 14:35:00
8:55 AM,-6.9,-18.6,57,30.17,10.0,NNW,15.0,-,N/A,,Clear,340,2014-02-27 14:55:00
9:15 AM,-6.7,-18.9,55,30.18,10.0,NNW,12.7,-,N/A,,Clear,330,2014-02-27 15:15:00
9:35 AM,-6.0,-19.1,53,30.18,10.0,NNW,13.8,-,N/A,,Clear,340,2014-02-27 15:35:00
9:55 AM,-5.6,-18.4,54,30.19,10.0,NNW,11.5,-,N/A,,Clear,330,2014-02-27 15:55:00
10:15 AM,-4.9,-18.0,53,30.19,10.0,NNW,12.7,-,N/A,,Clear,330,2014-02-27 16:15:00
10:35 AM,-4.5,-18.2,52,30.18,10.0,NNW,10.4,-,N/A,,Clear,340,2014-02-27 16:35:00
10:55 AM,-4.2,-16.2,56,30.19,2.0,NNW,8.1,-,N/A,,Haze,340,2014-02-27 16:55:00
11:15 AM,-3.1,-15.3,56,30.19,0.8,North,6.9,-,N/A,,Haze,360,2014-02-27 17:15:00
11:35 AM,-3.1,-18.0,49,30.19,10.0,North,6.9,-,N/A,,Scattered Clouds,360,2014-02-27 17:35:00
11:55 AM,-2.2,-16.8,50,30.19,10.0,NNW,4.6,-,N/A,,Clear,330,2014-02-27 17:55:00
12:15 PM,-1.8,-17.0,49,30.19,10.0,NNW,3.5,-,N/A,,Clear,340,2014-02-27 18:15:00
12:35 PM,-1.3,-17.1,47,30.18,10.0,NW,4.6,-,N/A,,Clear,310,2014-02-27 18:35:00
12:55 PM,-0.9,-16.6,48,30.17,10.0,NNW,3.5,-,N/A,,Clear,340,2014-02-27 18:55:00
1:15 PM,-0.6,-17.0,46,30.16,10.0,Calm,Calm,-,N/A,,Clear,0,2014-02-27 19:15:00
1:35 PM,-0.0,-16.8,45,30.16,10.0,Calm,Calm,-,N/A,,Clear,0,2014-02-27 19:35:00
1:55 PM,-0.0,-17.0,45,30.15,10.0,Calm,Calm,-,N/A,,Clear,0,2014-02-27 19:55:00
2:15 PM,0.1,-16.1,47,30.15,10.0,Calm,Calm,-,N/A,,Clear,0,2014-02-27 20:15:00
2:35 PM,0.9,-15.0,47,30.15,10.0,West,3.5,-,N/A,,Clear,260,2014-02-27 20:35:00
2:55 PM,0.5,-15.0,48,30.15,10.0,Calm,Calm,-,N/A,,Clear,0,2014-02-27 20:55:00
3:15 PM,0.9,-15.2,47,30.15,10.0,Calm,Calm,-,N/A,,Clear,0,2014-02-27 21:15:00
3:35 PM,0.7,-15.0,48,30.14,10.0,Calm,Calm,-,N/A,,Clear,0,2014-02-27 21:35:00
3:55 PM,0.7,-14.4,49,30.13,10.0,Calm,Calm,-,N/A,,Clear,0,2014-02-27 21:55:00
4:15 PM,0.3,-14.4,50,30.12,10.0,Calm,Calm,-,N/A,,Clear,0,2014-02-27 22:15:00
4:35 PM,-0.0,-14.8,50,30.12,10.0,Calm,Calm,-,N/A,,Clear,0,2014-02-27 22:35:00
4:55 PM,-0.2,-14.3,52,30.11,10.0,Calm,Calm,-,N/A,,Clear,0,2014-02-27 22:55:00
5:15 PM,-0.6,-13.7,54,30.11,10.0,NNE,4.6,-,N/A,,Clear,30,2014-02-27 23:15:00
5:35 PM,-1.3,-13.9,55,30.11,10.0,NNE,3.5,-,N/A,,Clear,30,2014-02-27 23:35:00
5:55 PM,-1.7,-13.5,57,30.11,10.0,ENE,4.6,-,N/A,,Clear,70,2014-02-27 23:55:00
6:15 PM,-3.5,-14.1,60,30.11,10.0,East,5.8,-,N/A,,Clear,80,2014-02-28 00:15:00
6:35 PM,-4.5,-15.3,60,30.11,10.0,ENE,5.8,-,N/A,,Clear,70,2014-02-28 00:35:00
6:55 PM,-4.5,-15.0,61,30.11,10.0,ENE,4.6,-,N/A,,Clear,70,2014-02-28 00:55:00
7:15 PM,-4.9,-15.3,61,30.11,10.0,East,4.6,-,N/A,,Clear,80,2014-02-28 01:15:00
7:35 PM,-7.8,-17.0,64,30.11,10.0,ESE,4.6,-,N/A,,Clear,110,2014-02-28 01:35:00
7:55 PM,-6.9,-15.9,65,30.11,10.0,East,4.6,-,N/A,,Clear,100,2014-02-28 01:55:00
8:15 PM,-8.0,-16.4,67,30.11,10.0,East,5.8,-,N/A,,Clear,100,2014-02-28 02:15:00
8:35 PM,-8.5,-17.9,64,30.10,10.0,ESE,4.6,-,N/A,,Clear,110,2014-02-28 02:35:00
8:55 PM,-8.0,-16.8,65,30.10,10.0,ESE,5.8,-,N/A,,Clear,120,2014-02-28 02:55:00
9:15 PM,-10.3,-18.4,67,30.10,10.0,ESE,5.8,-,N/A,,Clear,110,2014-02-28 03:15:00
9:35 PM,-10.7,-18.4,69,30.10,10.0,ESE,5.8,-,N/A,,Clear,120,2014-02-28 03:35:00
9:55 PM,-8.1,-16.4,67,30.09,10.0,East,5.8,-,N/A,,Clear,90,2014-02-28 03:55:00
10:15 PM,-11.6,-19.3,69,30.09,10.0,East,4.6,-,N/A,,Clear,100,2014-02-28 04:15:00
10:35 PM,-10.8,-18.0,70,30.08,10.0,ESE,4.6,-,N/A,,Clear,110,2014-02-28 04:35:00
10:55 PM,-9.8,-17.9,68,30.08,10.0,ESE,5.8,-,N/A,,Clear,110,2014-02-28 04:55:00
11:15 PM,-10.5,-18.2,69,30.07,10.0,ESE,6.9,-,N/A,,Clear,110,2014-02-28 05:15:00
11:35 PM,-9.6,-18.2,66,30.06,10.0,ESE,6.9,-,N/A,,Clear,110,2014-02-28 05:35:00
11:55 PM,-10.5,-18.4,68,30.05,10.0,East,5.8,-,N/A,,Clear,100,2014-02-28 05:55:00